Time;durP1;ratioP1;P1;durP2;ratioP2;P2;SDS_P1;SDS_P2;PMS_P1;PMS_P2;Temp;Humidity;BMP_temperature;BMP_pressure;BME280_temperature;BME280_humidity;BME280_pressure;Samples;Min_cycle;Max_cycle;Signal;HPM_P1;HPM_P2
2022/10/31 00:02:18;;;;;;;23.80;11.60;;;;;;;8.97;96.74;100199.94;106108;1295;73013;-75
2022/10/31 00:05:06;;;;;;;21.90;12.10;;;;;;;8.99;97.12;100192.16;106099;1289;58155;-76
2022/10/31 00:07:54;;;;;;;21.40;11.40;;;;;;;9.03;97.94;100194.91;106025;1288;60055;-75
2022/10/31 00:10:44;;;;;;;22.30;11.30;;;;;;;9.06;98.14;100192.80;106024;1289;73094;-76
2022/10/31 00:13:31;;;;;;;23.30;11.40;;;;;;;9.09;98.37;100191.65;106036;1292;66319;-75
2022/10/31 00:16:23;;;;;;;18.10;10.40;;;;;;;9.13;97.76;100193.52;106107;1289;73797;-76
2022/10/31 00:19:10;;;;;;;21.50;10.60;;;;;;;9.14;97.42;100191.69;106098;1287;59346;-76
2022/10/31 00:21:58;;;;;;;20.80;10.50;;;;;;;9.15;97.41;100190.73;106113;1289;61342;-75
2022/10/31 00:24:46;;;;;;;22.00;11.70;;;;;;;9.16;97.95;100191.35;106026;1289;74080;-74
2022/10/31 00:27:33;;;;;;;22.10;11.10;;;;;;;9.15;97.78;100190.88;106109;1288;67808;-74
2022/10/31 00:30:21;;;;;;;23.40;11.10;;;;;;;9.12;98.61;100187.20;106115;1285;71551;-75
2022/10/31 00:33:09;;;;;;;22.80;12.00;;;;;;;9.08;98.66;100190.53;105992;1291;59294;-74
2022/10/31 00:35:56;;;;;;;25.50;11.70;;;;;;;9.06;99.77;100190.84;106128;1289;61330;-74
2022/10/31 00:38:46;;;;;;;24.40;12.20;;;;;;;9.05;100.00;100195.51;106123;1274;73055;-75
2022/10/31 00:41:34;;;;;;;26.90;12.50;;;;;;;9.02;100.00;100192.30;106131;1289;67845;-75
2022/10/31 00:44:21;;;;;;;26.70;11.90;;;;;;;9.01;100.00;100193.09;106116;1289;71586;-74
2022/10/31 00:47:09;;;;;;;27.10;12.90;;;;;;;9.00;100.00;100195.84;106105;1289;59646;-74
2022/10/31 00:49:58;;;;;;;26.50;11.50;;;;;;;9.02;100.00;100197.27;106040;1282;58676;-75
2022/10/31 00:52:46;;;;;;;27.00;12.10;;;;;;;9.06;100.00;100201.80;106048;1295;73179;-76
2022/10/31 00:55:34;;;;;;;27.90;11.70;;;;;;;9.12;100.00;100204.21;105989;1291;69043;-76
2022/10/31 00:58:22;;;;;;;26.80;12.10;;;;;;;9.19;100.00;100205.32;106035;1290;72422;-76
2022/10/31 01:01:10;;;;;;;21.70;10.50;;;;;;;9.25;100.00;100203.85;106028;1281;58037;-77
2022/10/31 01:03:58;;;;;;;24.30;10.70;;;;;;;9.28;100.00;100206.14;106035;1292;60490;-78
2022/10/31 01:06:46;;;;;;;24.70;10.90;;;;;;;9.31;100.00;100209.95;105963;1294;73775;-76
2022/10/31 01:09:36;;;;;;;23.80;11.70;;;;;;;9.35;100.00;100212.67;106028;1284;66190;-74
2022/10/31 01:12:24;;;;;;;25.10;10.30;;;;;;;9.39;100.00;100213.29;106068;1289;71142;-75
2022/10/31 01:15:15;;;;;;;24.20;11.80;;;;;;;9.45;100.00;100213.44;106058;1291;59423;-76
2022/10/31 01:18:03;;;;;;;24.90;10.30;;;;;;;9.50;100.00;100202.64;106128;1289;60037;-78
2022/10/31 01:21:11;;;;;;;21.60;10.10;;;;;;;9.54;100.00;100207.61;106030;1289;73869;-75
2022/10/31 01:24:01;;;;;;;21.70;10.60;;;;;;;9.58;100.00;100205.76;106127;1288;68851;-75
2022/10/31 01:26:50;;;;;;;18.40;9.00;;;;;;;9.60;100.00;100205.61;106128;1288;71457;-74
2022/10/31 01:29:38;;;;;;;22.80;10.60;;;;;;;9.61;100.00;100206.23;106052;1295;59662;-75
2022/10/31 01:32:28;;;;;;;19.90;8.90;;;;;;;9.63;100.00;100203.63;106122;1290;60188;-75
2022/10/31 01:35:19;;;;;;;15.90;7.90;;;;;;;9.62;100.00;100201.27;106001;1292;74152;-74
2022/10/31 01:38:07;;;;;;;18.70;9.50;;;;;;;9.58;100.00;100201.73;106106;1289;68176;-76
2022/10/31 01:40:55;;;;;;;17.20;8.70;;;;;;;9.53;100.00;100206.64;106118;1289;71313;-75
2022/10/31 01:43:56;;;;;;;17.20;8.10;;;;;;;9.49;100.00;100209.56;106107;1285;58494;-75
2022/10/31 01:47:12;;;;;;;17.20;8.50;;;;;;;9.45;100.00;100210.38;105967;1297;58933;-75
2022/10/31 01:50:05;;;;;;;15.70;7.80;;;;;;;9.44;100.00;100199.35;106121;1295;71335;-75
2022/10/31 01:52:56;;;;;;;15.50;7.90;;;;;;;9.44;100.00;100189.98;106026;1284;66541;-76
2022/10/31 01:55:46;;;;;;;18.80;9.50;;;;;;;9.45;100.00;100193.61;106145;1287;72662;-75
2022/10/31 01:58:35;;;;;;;15.30;7.90;;;;;;;9.48;100.00;100204.31;105999;1297;60461;-74
2022/10/31 02:01:23;;;;;;;15.80;7.70;;;;;;;9.53;100.00;100202.71;106122;1295;60073;-75
2022/10/31 02:04:11;;;;;;;16.30;8.50;;;;;;;9.60;100.00;100204.75;105997;1289;74060;-75
2022/10/31 02:07:07;;;;;;;17.00;8.70;;;;;;;9.66;100.00;100203.77;106113;1287;67710;-75
2022/10/31 02:09:56;;;;;;;16.70;7.90;;;;;;;9.74;100.00;100206.05;106101;1295;73447;-76
2022/10/31 02:12:45;;;;;;;16.50;8.80;;;;;;;9.82;100.00;100204.09;106041;1289;58149;-75
2022/10/31 02:15:36;;;;;;;16.50;8.90;;;;;;;9.91;100.00;100204.48;106114;1295;60349;-76
2022/10/31 02:18:27;;;;;;;16.90;8.40;;;;;;;10.00;100.00;100202.22;106047;1292;71420;-75
2022/10/31 02:21:22;;;;;;;17.80;8.80;;;;;;;10.09;100.00;100199.77;105972;1291;68967;-75
2022/10/31 02:24:40;;;;;;;18.70;9.00;;;;;;;10.15;100.00;100194.73;106106;1287;73883;-76
2022/10/31 02:28:15;;;;;;;19.20;8.90;;;;;;;10.22;100.00;100198.52;106002;1295;58139;-76
2022/10/31 02:31:39;;;;;;;21.80;9.80;;;;;;;10.30;100.00;100201.45;105963;1295;60605;-74
2022/10/31 02:34:51;;;;;;;21.80;10.10;;;;;;;10.37;100.00;100202.91;106113;1285;71424;-75
2022/10/31 02:37:57;;;;;;;20.20;9.60;;;;;;;10.43;100.00;100208.71;106045;1289;67776;-74
2022/10/31 02:40:51;;;;;;;21.30;9.20;;;;;;;10.48;100.00;100209.70;106125;1288;72481;-75
2022/10/31 02:44:34;;;;;;;24.90;10.90;;;;;;;10.53;100.00;100213.56;106058;1292;60572;-75
2022/10/31 02:47:33;;;;;;;24.10;10.80;;;;;;;10.61;100.00;100214.98;106078;1287;61248;-75
2022/10/31 02:50:31;;;;;;;22.00;10.20;;;;;;;10.68;100.00;100217.77;106054;1294;72857;-75
2022/10/31 02:53:19;;;;;;;18.30;7.80;;;;;;;10.76;100.00;100220.79;106030;1289;69157;-76
2022/10/31 02:56:19;;;;;;;25.20;10.60;;;;;;;10.82;100.00;100223.34;106044;1292;73939;-75
2022/10/31 02:59:06;;;;;;;25.90;10.60;;;;;;;10.87;100.00;100221.89;106116;1290;60548;-75
2022/10/31 03:02:20;;;;;;;23.20;10.10;;;;;;;10.89;100.00;100221.69;105956;1292;61162;-76
2022/10/31 03:06:03;;;;;;;24.70;11.90;;;;;;;10.94;100.00;100220.80;106115;1294;71417;-76
2022/10/31 03:09:11;;;;;;;22.50;10.10;;;;;;;10.97;100.00;100224.87;106034;1291;68921;-76
2022/10/31 03:12:27;;;;;;;25.80;10.20;;;;;;;10.98;100.00;100226.19;106109;1293;71198;-75
2022/10/31 03:15:26;;;;;;;25.60;11.20;;;;;;;11.01;100.00;100232.14;105964;1293;59545;-75
2022/10/31 03:18:31;;;;;;;26.30;11.80;;;;;;;11.06;100.00;100234.46;105962;1288;59268;-76
2022/10/31 03:21:32;;;;;;;26.60;11.30;;;;;;;11.12;100.00;100236.80;105980;1290;73295;-75
2022/10/31 03:24:25;;;;;;;27.80;11.60;;;;;;;11.17;100.00;100236.29;105895;1298;67283;-75
2022/10/31 03:27:16;;;;;;;27.80;11.90;;;;;;;11.22;100.00;100241.01;105990;1290;72616;-76
2022/10/31 03:30:07;;;;;;;29.00;12.10;;;;;;;11.28;100.00;100243.95;105987;1296;59302;-75
2022/10/31 03:33:14;;;;;;;30.10;12.00;;;;;;;11.37;100.00;100249.31;105993;1291;61699;-76
2022/10/31 03:36:08;;;;;;;27.50;11.80;;;;;;;11.43;100.00;100244.91;105962;1289;73101;-77
2022/10/31 03:38:58;;;;;;;31.20;12.30;;;;;;;11.49;100.00;100241.95;106033;1292;68664;-75
2022/10/31 03:42:02;;;;;;;26.30;12.00;;;;;;;11.54;100.00;100241.94;106093;1288;71200;-74
2022/10/31 03:45:02;;;;;;;30.40;12.10;;;;;;;11.60;100.00;100242.67;106021;1296;59294;-75
2022/10/31 03:47:51;;;;;;;31.80;12.80;;;;;;;11.66;100.00;100242.77;106021;1292;60281;-76
2022/10/31 03:50:50;;;;;;;29.80;13.00;;;;;;;11.72;100.00;100240.12;106040;1292;74001;-75
2022/10/31 03:53:56;;;;;;;27.90;12.50;;;;;;;11.78;100.00;100239.89;106044;1289;67547;-75
2022/10/31 03:56:54;;;;;;;29.40;12.80;;;;;;;11.83;100.00;100237.13;106065;1292;71009;-76
2022/10/31 03:59:50;;;;;;;31.00;13.20;;;;;;;11.86;100.00;100238.83;106093;1288;60661;-75
2022/10/31 04:02:49;;;;;;;29.00;12.10;;;;;;;11.88;100.00;100236.56;106086;1294;60106;-76
2022/10/31 04:05:39;;;;;;;32.00;13.80;;;;;;;11.87;100.00;100237.15;105963;1289;73343;-75
2022/10/31 04:08:32;;;;;;;27.80;12.80;;;;;;;11.86;100.00;100235.31;106047;1290;66368;-75
2022/10/31 04:11:24;;;;;;;30.30;12.00;;;;;;;11.82;100.00;100231.52;106030;1289;72364;-75
2022/10/31 04:14:47;;;;;;;28.40;12.60;;;;;;;11.77;100.00;100228.34;106010;1292;59324;-76
2022/10/31 04:17:41;;;;;;;30.00;13.00;;;;;;;11.73;100.00;100227.61;105902;1287;187836;-76
2022/10/31 04:20:38;;;;;;;30.30;13.90;;;;;;;11.69;100.00;100227.74;105919;1291;73472;-78
2022/10/31 04:23:27;;;;;;;29.30;13.80;;;;;;;11.63;100.00;100227.52;105895;1292;68737;-76
2022/10/31 04:26:15;;;;;;;26.00;11.30;;;;;;;11.57;100.00;100226.93;105997;1283;72419;-77
2022/10/31 04:29:04;;;;;;;27.30;12.90;;;;;;;11.49;100.00;100226.36;106086;1289;60421;-76
2022/10/31 04:31:52;;;;;;;31.60;13.40;;;;;;;11.41;100.00;100221.44;106015;1289;58647;-77
2022/10/31 04:34:41;;;;;;;31.60;13.70;;;;;;;11.38;100.00;100228.23;106094;1288;72461;-75
2022/10/31 04:37:31;;;;;;;33.90;14.40;;;;;;;11.34;100.00;100229.45;106105;1289;67976;-77
2022/10/31 04:40:19;;;;;;;27.70;13.80;;;;;;;11.31;100.00;100228.48;105967;1291;71489;-76
2022/10/31 04:43:25;;;;;;;28.20;13.60;;;;;;;11.25;100.00;100227.96;106094;1288;59317;-77
2022/10/31 04:46:13;;;;;;;29.60;13.80;;;;;;;11.20;100.00;100224.64;105993;1298;61148;-76
2022/10/31 04:49:02;;;;;;;31.00;14.30;;;;;;;11.17;100.00;100227.23;105974;1289;73997;-76
2022/10/31 04:51:50;;;;;;;31.00;13.70;;;;;;;11.12;100.00;100224.91;105995;1290;68611;-76
2022/10/31 04:54:38;;;;;;;29.20;13.30;;;;;;;11.08;100.00;100221.65;106016;1289;72389;-75
2022/10/31 04:57:47;;;;;;;29.50;13.90;;;;;;;11.04;100.00;100212.78;106086;1288;59306;-76
2022/10/31 05:00:35;;;;;;;27.70;12.00;;;;;;;10.99;100.00;100214.58;105943;1290;61153;-76
2022/10/31 05:03:24;;;;;;;28.50;13.60;;;;;;;10.96;100.00;100210.93;106109;1289;72204;-75
2022/10/31 05:06:12;;;;;;;25.30;12.90;;;;;;;10.94;100.00;100213.52;105990;1275;68655;-75
2022/10/31 05:09:01;;;;;;;24.30;12.00;;;;;;;10.94;100.00;100214.29;105972;1292;71434;-76
2022/10/31 05:11:48;;;;;;;27.00;13.00;;;;;;;10.94;100.00;100209.27;106000;1289;59422;-76
2022/10/31 05:14:49;;;;;;;24.60;11.90;;;;;;;10.97;100.00;100212.05;106007;1285;60190;-77
2022/10/31 05:17:56;;;;;;;23.30;10.40;;;;;;;11.01;100.00;100217.09;106100;1288;73812;-76
2022/10/31 05:21:05;;;;;;;30.80;12.40;;;;;;;11.03;100.00;100213.86;106101;1289;66566;-77
2022/10/31 05:23:55;;;;;;;24.90;12.20;;;;;;;11.06;100.00;100207.95;106102;1288;72470;-76
2022/10/31 05:26:44;;;;;;;23.90;11.70;;;;;;;11.11;100.00;100211.68;105980;1285;59316;-76
2022/10/31 05:29:33;;;;;;;25.30;11.60;;;;;;;11.14;100.00;100213.73;106116;1288;60287;-77
2022/10/31 05:32:23;;;;;;;21.50;10.10;;;;;;;11.16;100.00;100215.92;106240;1283;73202;-76
2022/10/31 05:35:43;;;;;;;24.60;11.70;;;;;;;11.15;100.00;100212.98;106334;1288;66478;-75
2022/10/31 05:38:51;;;;;;;22.80;11.20;;;;;;;11.11;100.00;100217.01;106189;1281;71732;-77
2022/10/31 05:41:46;;;;;;;23.60;9.70;;;;;;;11.07;100.00;100222.30;106144;1288;59317;-77
2022/10/31 05:44:41;;;;;;;25.10;12.60;;;;;;;11.03;100.00;100231.35;105969;1289;57819;-77
2022/10/31 05:47:40;;;;;;;27.30;13.10;;;;;;;10.98;100.00;100232.93;105950;1289;74051;-77
2022/10/31 05:50:48;;;;;;;27.10;12.30;;;;;;;10.94;100.00;100232.55;106038;1288;65994;-76
2022/10/31 05:53:36;;;;;;;29.90;14.00;;;;;;;10.89;100.00;100238.06;105912;1289;72851;-76
2022/10/31 05:56:24;;;;;;;26.80;13.90;;;;;;;10.86;100.00;100248.20;106027;1290;60392;-77
2022/10/31 05:59:12;;;;;;;27.50;12.70;;;;;;;10.84;100.00;100254.54;106025;1291;58624;-77
2022/10/31 06:02:02;;;;;;;29.80;14.20;;;;;;;10.78;100.00;100256.79;106064;1290;72869;-76
2022/10/31 06:05:10;;;;;;;28.40;13.50;;;;;;;10.72;100.00;100254.95;106124;1289;67544;-77
2022/10/31 06:07:58;;;;;;;27.10;13.50;;;;;;;10.68;100.00;100250.58;106034;1281;72757;-75
2022/10/31 06:10:47;;;;;;;31.50;15.10;;;;;;;10.66;100.00;100254.72;105984;1291;59397;-76
2022/10/31 06:13:36;;;;;;;31.30;14.50;;;;;;;10.62;100.00;100257.68;106013;1288;60598;-76
2022/10/31 06:16:33;;;;;;;32.00;15.60;;;;;;;10.58;100.00;100259.21;105993;1278;73800;-76
2022/10/31 06:19:34;;;;;;;32.60;14.60;;;;;;;10.57;100.00;100261.19;106035;1290;67561;-75
2022/10/31 06:22:22;;;;;;;31.40;15.80;;;;;;;10.57;100.00;100255.88;106117;1282;70649;-76
2022/10/31 06:25:10;;;;;;;29.80;13.30;;;;;;;10.60;100.00;100246.96;106012;1289;58037;-76
2022/10/31 06:28:02;;;;;;;31.50;15.30;;;;;;;10.63;100.00;100247.46;106113;1289;60074;-76
2022/10/31 06:31:12;;;;;;;31.60;14.70;;;;;;;10.69;100.00;100251.65;106004;1283;71852;-76
2022/10/31 06:34:00;;;;;;;28.30;14.40;;;;;;;10.72;100.00;100254.55;106073;1289;69055;-75
2022/10/31 06:36:49;;;;;;;28.40;14.40;;;;;;;10.77;100.00;100258.12;106040;1292;73705;-77
2022/10/31 06:39:39;;;;;;;28.00;14.20;;;;;;;10.82;100.00;100260.27;105921;1289;57948;-77
2022/10/31 06:42:28;;;;;;;30.00;13.90;;;;;;;10.86;100.00;100260.06;105937;1285;58629;-75
2022/10/31 06:45:16;;;;;;;28.10;14.00;;;;;;;10.92;100.00;100265.51;106081;1289;71462;-76
2022/10/31 06:48:23;;;;;;;32.90;15.70;;;;;;;10.95;100.00;100265.10;106074;1288;69127;-75
2022/10/31 06:51:30;;;;;;;33.40;15.00;;;;;;;11.03;100.00;100273.58;106102;1273;72788;-76
2022/10/31 06:54:19;;;;;;;26.90;13.10;;;;;;;11.08;100.00;100282.05;105989;1291;59348;-77
2022/10/31 06:57:07;;;;;;;25.40;12.90;;;;;;;11.10;100.00;100287.78;105983;1292;61137;-76
2022/10/31 06:59:57;;;;;;;25.60;13.00;;;;;;;11.08;100.00;100289.49;105786;1289;73988;-76
2022/10/31 07:03:04;;;;;;;30.80;14.20;;;;;;;11.06;100.00;100290.50;105994;1289;67659;-76
2022/10/31 07:05:56;;;;;;;30.00;13.40;;;;;;;11.05;100.00;100288.46;105989;1284;73441;-76
2022/10/31 07:08:44;;;;;;;27.60;13.20;;;;;;;11.07;100.00;100283.55;105999;1292;59353;-77
2022/10/31 07:11:33;;;;;;;27.50;13.40;;;;;;;11.12;100.00;100281.43;106024;1292;60167;-78
2022/10/31 07:14:21;;;;;;;28.60;14.30;;;;;;;11.17;100.00;100280.68;105997;1292;71382;-78
2022/10/31 07:17:09;;;;;;;32.20;14.70;;;;;;;11.22;100.00;100279.90;105996;1292;68696;-76
2022/10/31 07:20:00;;;;;;;26.20;13.40;;;;;;;11.29;100.00;100288.32;106008;1288;72361;-77
2022/10/31 07:22:47;;;;;;;35.30;16.20;;;;;;;11.36;100.00;100292.21;105998;1296;60427;-77
2022/10/31 07:25:39;;;;;;;28.90;13.90;;;;;;;11.46;100.00;100296.05;105954;1282;61136;-78
2022/10/31 07:28:31;;;;;;;26.60;14.10;;;;;;;11.54;100.00;100292.42;106010;1289;73824;-75
2022/10/31 07:31:19;;;;;;;30.60;16.90;;;;;;;11.60;100.00;100294.24;105945;1290;68029;-77
2022/10/31 07:34:07;;;;;;;31.20;14.90;;;;;;;11.69;100.00;100297.03;106024;1280;72369;-77
2022/10/31 07:36:55;;;;;;;30.60;14.60;;;;;;;11.81;100.00;100303.44;106075;1294;59349;-76
2022/10/31 07:39:43;;;;;;;28.30;13.70;;;;;;;11.91;100.00;100303.50;106017;1288;58687;-76
2022/10/31 07:42:39;;;;;;;31.70;15.30;;;;;;;11.96;100.00;100300.65;106119;1287;71822;-75
2022/10/31 07:45:32;;;;;;;28.00;13.70;;;;;;;11.99;100.00;100297.25;105992;1281;67683;-76
2022/10/31 07:48:52;;;;;;;29.50;13.90;;;;;;;12.03;100.00;100296.77;105919;1289;72587;-76
2022/10/31 07:51:58;;;;;;;26.60;13.40;;;;;;;12.09;100.00;100290.93;106077;1288;58518;-77
2022/10/31 07:55:15;;;;;;;30.10;14.20;;;;;;;12.17;100.00;100293.48;106100;1288;58994;-76
2022/10/31 07:58:13;;;;;;;29.80;14.00;;;;;;;12.24;100.00;100293.96;106118;1289;72915;-77
2022/10/31 08:01:01;;;;;;;25.30;12.20;;;;;;;12.32;100.00;100292.98;106017;1282;67617;-77
2022/10/31 08:03:54;;;;;;;29.70;14.80;;;;;;;12.41;100.00;100299.20;105969;1288;73539;-75
2022/10/31 08:07:20;;;;;;;30.50;13.90;;;;;;;12.54;100.00;100305.76;105882;1295;59286;-77
2022/10/31 08:10:12;;;;;;;26.80;10.90;;;;;;;12.65;100.00;100305.97;106005;1288;60053;-76
2022/10/31 08:13:03;;;;;;;29.90;14.60;;;;;;;12.72;100.00;100297.73;106007;1291;72732;-73
2022/10/31 08:15:53;;;;;;;29.00;13.60;;;;;;;12.80;100.00;100295.65;105984;1289;68146;-77
2022/10/31 08:18:44;;;;;;;86.70;53.20;;;;;;;12.91;100.00;100299.37;105986;1284;73389;-76
2022/10/31 08:21:32;;;;;;;33.80;18.60;;;;;;;13.01;100.00;100304.77;106044;1292;59510;-77
2022/10/31 08:24:21;;;;;;;34.70;17.30;;;;;;;13.13;100.00;100305.70;106053;1289;61524;-77
2022/10/31 08:27:09;;;;;;;31.60;15.50;;;;;;;13.25;100.00;100303.59;105989;1292;71384;-77
2022/10/31 08:29:59;;;;;;;26.50;13.70;;;;;;;13.38;100.00;100306.84;105965;1289;66504;-76
2022/10/31 08:32:48;;;;;;;31.20;15.30;;;;;;;13.44;100.00;100309.55;105979;1288;73472;-77
2022/10/31 08:35:54;;;;;;;33.60;15.10;;;;;;;13.48;100.00;100317.26;106103;1288;60555;-77
2022/10/31 08:39:14;;;;;;;27.70;12.50;;;;;;;13.47;100.00;100319.64;105845;1281;59057;-75
2022/10/31 08:42:02;;;;;;;86.00;50.00;;;;;;;13.49;100.00;100320.02;106083;1281;71996;-76
2022/10/31 08:44:50;;;;;;;50.80;26.70;;;;;;;13.54;100.00;100320.46;106063;1289;66720;-79
2022/10/31 08:47:40;;;;;;;39.40;17.10;;;;;;;13.59;100.00;100318.39;106014;1292;71022;-76
2022/10/31 08:50:30;;;;;;;37.70;17.40;;;;;;;13.65;100.00;100313.60;106091;1288;60433;-78
2022/10/31 08:53:19;;;;;;;38.70;16.80;;;;;;;13.70;100.00;100314.63;106000;1288;60315;-79
2022/10/31 08:56:12;;;;;;;37.40;16.30;;;;;;;13.77;100.00;100313.80;106007;1289;72767;-76
2022/10/31 08:59:00;;;;;;;35.80;15.80;;;;;;;13.83;100.00;100308.64;106093;1288;68105;-77
2022/10/31 09:02:07;;;;;;;36.20;14.60;;;;;;;13.90;100.00;100305.94;106122;1289;70981;-78
2022/10/31 09:04:55;;;;;;;38.10;17.40;;;;;;;13.90;100.00;100310.34;105918;1288;57800;-76
2022/10/31 09:07:43;;;;;;;37.70;17.00;;;;;;;13.92;100.00;100308.73;106066;1281;58682;-75
2022/10/31 09:10:34;;;;;;;37.60;16.10;;;;;;;13.92;100.00;100311.80;106008;1284;71406;-76
2022/10/31 09:13:22;;;;;;;35.60;16.30;;;;;;;13.93;100.00;100310.81;105982;1290;68934;-75
2022/10/31 09:16:51;;;;;;;38.50;17.00;;;;;;;13.92;100.00;100315.15;106106;1288;73889;-75
2022/10/31 09:19:41;;;;;;;42.40;18.40;;;;;;;13.94;100.00;100316.09;105938;1289;59247;-75
2022/10/31 09:22:29;;;;;;;40.80;17.70;;;;;;;13.91;100.00;100311.14;105992;1284;60022;-76
2022/10/31 09:25:17;;;;;;;36.20;15.80;;;;;;;13.89;100.00;100306.52;106042;1281;74312;-75
2022/10/31 09:28:13;;;;;;;38.70;17.20;;;;;;;13.86;100.00;100300.77;105948;1289;69066;-76
2022/10/31 09:31:02;;;;;;;40.20;18.00;;;;;;;13.95;100.00;100298.91;105943;1282;73502;-75
2022/10/31 09:34:07;;;;;;;38.90;17.80;;;;;;;14.02;100.00;100297.53;106031;1281;60624;-75
2022/10/31 09:36:55;;;;;;;35.60;16.00;;;;;;;14.08;99.98;100296.31;106113;1289;59821;-74
2022/10/31 09:39:44;;;;;;;41.90;18.20;;;;;;;14.10;100.00;100300.77;105935;1289;73960;-76
2022/10/31 09:43:00;;;;;;;38.80;17.80;;;;;;;14.14;100.00;100307.04;105987;1284;67609;-75
2022/10/31 09:46:05;;;;;;;35.00;16.20;;;;;;;14.14;99.90;100307.00;105894;1285;72077;-75
2022/10/31 09:49:16;;;;;;;37.30;17.60;;;;;;;14.08;99.45;100320.06;105949;1292;59275;-75
2022/10/31 09:52:31;;;;;;;38.30;17.80;;;;;;;14.03;99.63;100327.26;106004;1292;60757;-74
2022/10/31 09:55:31;;;;;;;31.80;17.40;;;;;;;14.03;99.69;100327.47;105992;1289;72751;-74
2022/10/31 09:58:31;;;;;;;42.30;20.50;;;;;;;13.99;99.86;100322.05;105937;1292;67577;-75
2022/10/31 10:01:35;;;;;;;37.00;18.60;;;;;;;14.03;99.96;100323.20;105921;1289;72270;-75
2022/10/31 10:04:46;;;;;;;38.80;19.30;;;;;;;14.07;99.72;100326.96;106063;1289;59257;-75
2022/10/31 10:08:15;;;;;;;35.80;17.90;;;;;;;14.05;99.55;100332.65;106005;1289;61298;-76
2022/10/31 10:12:02;;;;;;;37.30;18.90;;;;;;;13.98;99.57;100327.32;105509;1297;72747;-75
2022/10/31 10:14:52;;;;;;;38.30;19.70;;;;;;;13.91;99.73;100321.88;105556;1298;67667;-76
2022/10/31 10:18:47;;;;;;;35.20;18.00;;;;;;;13.94;100.00;100324.63;105585;1298;73474;-75
2022/10/31 10:21:42;;;;;;;32.90;16.20;;;;;;;13.98;99.49;100329.69;104575;1306;60881;-76
2022/10/31 10:24:56;;;;;;;34.30;17.80;;;;;;;13.92;99.50;100326.04;104471;1309;61325;-75
2022/10/31 10:28:19;;;;;;;32.80;17.40;;;;;;;13.86;99.71;100323.05;104594;1300;71809;-75
2022/10/31 10:31:19;;;;;;;36.40;18.60;;;;;;;13.85;100.00;100323.30;104554;1306;67910;-74
2022/10/31 10:34:22;;;;;;;36.90;20.00;;;;;;;13.86;100.00;100318.58;104361;1300;72504;-74
2022/10/31 10:37:37;;;;;;;35.40;18.60;;;;;;;13.84;99.95;100308.89;104474;1306;59523;-75
2022/10/31 10:40:27;;;;;;;40.10;21.30;;;;;;;13.84;99.98;100313.23;104608;1306;61263;-75
2022/10/31 10:43:37;;;;;;;33.40;17.60;;;;;;;13.85;100.00;100314.59;104479;1306;74227;-75
2022/10/31 10:49:51;;;;;;;35.20;17.20;;;;;;;13.87;100.00;100318.63;104931;1302;72386;-75
2022/10/31 10:53:07;;;;;;;38.20;19.20;;;;;;;13.80;100.00;100318.37;104914;1303;58106;-74
2022/10/31 10:56:16;;;;;;;39.80;20.60;;;;;;;13.72;100.00;100319.80;104844;1310;60535;-75
2022/10/31 10:59:04;;;;;;;34.70;19.70;;;;;;;13.75;100.00;100321.88;105939;1292;74169;-75
2022/10/31 11:01:52;;;;;;;39.10;21.40;;;;;;;13.78;100.00;100317.98;106109;1289;67942;-75
2022/10/31 11:04:41;;;;;;;36.30;19.00;;;;;;;13.82;100.00;100317.00;106094;1288;73494;-76
2022/10/31 11:07:41;;;;;;;37.00;20.80;;;;;;;13.83;100.00;100313.12;106099;1289;59215;-76
2022/10/31 11:10:29;;;;;;;38.70;21.10;;;;;;;13.84;100.00;100311.23;106111;1289;60353;-75
2022/10/31 11:13:23;;;;;;;35.20;19.70;;;;;;;13.81;99.98;100314.35;106088;1289;74372;-75
2022/10/31 11:16:36;;;;;;;34.10;19.70;;;;;;;13.79;99.97;100319.02;106098;1289;67536;-76
2022/10/31 11:19:27;;;;;;;36.10;19.60;;;;;;;13.80;99.98;100320.54;106043;1289;72364;-76
2022/10/31 11:22:20;;;;;;;33.40;18.70;;;;;;;13.79;99.83;100319.86;106106;1289;59218;-75
2022/10/31 11:25:24;;;;;;;37.30;20.10;;;;;;;13.79;99.88;100317.73;105996;1289;60097;-76
2022/10/31 11:28:12;;;;;;;37.70;21.40;;;;;;;13.80;99.61;100317.64;106120;1289;71417;-75
2022/10/31 11:31:07;;;;;;;33.10;18.50;;;;;;;13.82;99.57;100313.62;106116;1289;66141;-75
2022/10/31 11:34:04;;;;;;;33.60;19.50;;;;;;;13.80;99.29;100318.20;105922;1289;72473;-75
2022/10/31 11:36:52;;;;;;;32.80;18.90;;;;;;;13.82;99.63;100322.86;105989;1281;60782;-76
2022/10/31 11:39:56;;;;;;;29.90;18.00;;;;;;;13.84;98.88;100328.36;106000;1284;61479;-76
2022/10/31 11:42:46;;;;;;;35.90;21.00;;;;;;;13.80;98.60;100319.10;106007;1289;72978;-75
2022/10/31 11:45:36;;;;;;;34.90;17.50;;;;;;;13.78;98.80;100321.60;105980;1284;68775;-75
2022/10/31 11:48:25;;;;;;;34.90;20.10;;;;;;;13.73;98.74;100323.29;106007;1281;70944;-75
2022/10/31 11:51:24;;;;;;;31.40;17.20;;;;;;;13.71;99.23;100314.19;106061;1289;58315;-76
2022/10/31 11:54:23;;;;;;;37.00;21.30;;;;;;;13.65;99.39;100310.21;106097;1280;60019;-75
2022/10/31 11:57:29;;;;;;;34.70;20.10;;;;;;;13.63;99.63;100311.96;105976;1284;71556;-74
2022/10/31 12:00:31;;;;;;;38.50;20.10;;;;;;;13.68;99.96;100317.30;105982;1292;68770;-75
2022/10/31 12:03:22;;;;;;;32.90;17.70;;;;;;;13.72;99.96;100310.73;106072;1288;72682;-75
2022/10/31 12:06:33;;;;;;;32.70;17.50;;;;;;;13.72;99.64;100312.80;106096;1294;59311;-75
2022/10/31 12:09:32;;;;;;;35.50;20.70;;;;;;;13.67;99.56;100313.79;105951;1289;58810;-75
2022/10/31 12:12:23;;;;;;;37.60;20.10;;;;;;;13.67;99.94;100316.63;106029;1289;72800;-74
2022/10/31 12:15:30;;;;;;;40.70;21.60;;;;;;;13.67;99.93;100317.75;106103;1289;67535;-74
2022/10/31 12:18:58;;;;;;;40.90;21.00;;;;;;;13.62;99.71;100322.77;106093;1281;72245;-77
2022/10/31 12:22:12;;;;;;;36.90;20.30;;;;;;;13.55;99.58;100323.38;105955;1290;59334;-75
2022/10/31 12:25:31;;;;;;;29.20;16.10;;;;;;;13.52;99.93;100325.08;106114;1282;58663;-75
2022/10/31 12:28:47;;;;;;;32.60;18.90;;;;;;;13.49;99.99;100317.85;106013;1289;74046;-76
2022/10/31 12:32:12;;;;;;;30.30;15.90;;;;;;;13.49;100.00;100323.14;106097;1289;68009;-74
2022/10/31 12:35:19;;;;;;;30.70;16.90;;;;;;;13.47;99.67;100320.74;106085;1289;72552;-75
2022/10/31 12:38:42;;;;;;;31.80;17.20;;;;;;;13.43;99.55;100321.52;106079;1287;60509;-74
2022/10/31 12:42:01;;;;;;;31.00;17.30;;;;;;;13.40;99.49;100319.52;106090;1289;61096;-76
2022/10/31 12:45:28;;;;;;;32.40;18.10;;;;;;;13.38;99.67;100318.45;105970;1289;73241;-73
2022/10/31 12:49:01;;;;;;;34.20;18.60;;;;;;;13.37;100.00;100319.41;106011;1289;68620;-75
2022/10/31 12:52:33;;;;;;;32.90;16.10;;;;;;;13.37;99.80;100315.16;105973;1282;71728;-75
2022/10/31 12:56:10;;;;;;;32.60;17.50;;;;;;;13.34;99.78;100312.48;106096;1294;59339;-75
2022/10/31 12:59:08;;;;;;;30.70;16.90;;;;;;;13.31;99.73;100313.09;106124;1288;60057;-76
2022/10/31 13:02:31;;;;;;;28.70;16.00;;;;;;;13.29;99.77;100307.17;106094;1289;72886;-75
2022/10/31 13:05:27;;;;;;;34.00;19.40;;;;;;;13.27;99.88;100305.77;105920;1291;68633;-74
2022/10/31 13:08:22;;;;;;;31.00;18.70;;;;;;;13.24;99.80;100306.05;105977;1282;72911;-75
2022/10/31 13:11:37;;;;;;;31.00;18.20;;;;;;;13.23;99.86;100308.57;106115;1288;59279;-75
2022/10/31 13:14:51;;;;;;;35.70;18.70;;;;;;;13.22;99.81;100305.48;106131;1288;59025;-75
2022/10/31 13:17:48;;;;;;;36.20;18.90;;;;;;;13.17;99.92;100303.27;105985;1290;72811;-74